sensor_id;sensor_type;location;lat;lon;timestamp;temperature;humidity
19279;DHT22;9773;47.062;15.446;2023-04-27T00:02:04;8.70;95.10
19279;DHT22;9773;47.062;15.446;2023-04-27T00:04:31;8.70;95.20
19279;DHT22;9773;47.062;15.446;2023-04-27T00:06:57;8.60;95.30
19279;DHT22;9773;47.062;15.446;2023-04-27T00:09:22;8.60;95.20
19279;DHT22;9773;47.062;15.446;2023-04-27T00:11:48;8.50;95.40
19279;DHT22;9773;47.062;15.446;2023-04-27T00:14:14;8.50;95.50
19279;DHT22;9773;47.062;15.446;2023-04-27T00:16:39;8.40;95.40
19279;DHT22;9773;47.062;15.446;2023-04-27T00:19:05;8.40;95.40
19279;DHT22;9773;47.062;15.446;2023-04-27T00:21:33;8.40;95.50
19279;DHT22;9773;47.062;15.446;2023-04-27T00:24:00;8.40;95.50
19279;DHT22;9773;47.062;15.446;2023-04-27T00:26:26;8.40;95.60
19279;DHT22;9773;47.062;15.446;2023-04-27T00:28:52;8.40;95.60
19279;DHT22;9773;47.062;15.446;2023-04-27T00:31:17;8.50;95.70
19279;DHT22;9773;47.062;15.446;2023-04-27T00:33:43;8.50;95.40
19279;DHT22;9773;47.062;15.446;2023-04-27T00:36:09;8.50;95.50
19279;DHT22;9773;47.062;15.446;2023-04-27T00:38:34;8.40;95.70
19279;DHT22;9773;47.062;15.446;2023-04-27T00:41:05;8.40;95.80
19279;DHT22;9773;47.062;15.446;2023-04-27T00:43:32;8.40;95.90
19279;DHT22;9773;47.062;15.446;2023-04-27T00:45:59;9.20;96.30
19279;DHT22;9773;47.062;15.446;2023-04-27T00:48:25;8.40;95.90
19279;DHT22;9773;47.062;15.446;2023-04-27T00:50:51;8.40;96.00
19279;DHT22;9773;47.062;15.446;2023-04-27T00:53:17;8.50;95.90
19279;DHT22;9773;47.062;15.446;2023-04-27T00:55:44;8.40;95.90
19279;DHT22;9773;47.062;15.446;2023-04-27T00:58:09;8.40;96.10
19279;DHT22;9773;47.062;15.446;2023-04-27T01:00:36;8.40;96.00
19279;DHT22;9773;47.062;15.446;2023-04-27T01:03:02;8.40;96.00
19279;DHT22;9773;47.062;15.446;2023-04-27T01:05:29;8.40;96.10
19279;DHT22;9773;47.062;15.446;2023-04-27T01:07:55;8.40;96.20
19279;DHT22;9773;47.062;15.446;2023-04-27T01:10:20;8.40;96.30
19279;DHT22;9773;47.062;15.446;2023-04-27T01:12:46;8.30;96.30
19279;DHT22;9773;47.062;15.446;2023-04-27T01:15:12;8.40;96.30
19279;DHT22;9773;47.062;15.446;2023-04-27T01:17:37;8.40;96.20
19279;DHT22;9773;47.062;15.446;2023-04-27T01:20:04;8.30;96.30
19279;DHT22;9773;47.062;15.446;2023-04-27T01:22:31;8.30;96.30
19279;DHT22;9773;47.062;15.446;2023-04-27T01:24:57;8.40;96.20
19279;DHT22;9773;47.062;15.446;2023-04-27T01:27:24;8.30;96.00
19279;DHT22;9773;47.062;15.446;2023-04-27T01:29:50;8.30;96.10
19279;DHT22;9773;47.062;15.446;2023-04-27T01:32:15;8.30;96.20
19279;DHT22;9773;47.062;15.446;2023-04-27T01:34:41;8.30;96.30
19279;DHT22;9773;47.062;15.446;2023-04-27T01:37:07;8.20;96.40
19279;DHT22;9773;47.062;15.446;2023-04-27T01:39:33;8.20;96.50
19279;DHT22;9773;47.062;15.446;2023-04-27T01:41:58;8.20;96.40
19279;DHT22;9773;47.062;15.446;2023-04-27T01:44:24;8.20;96.60
19279;DHT22;9773;47.062;15.446;2023-04-27T01:46:50;8.20;96.50
19279;DHT22;9773;47.062;15.446;2023-04-27T01:49:16;8.20;96.50
19279;DHT22;9773;47.062;15.446;2023-04-27T01:51:41;8.20;96.60
19279;DHT22;9773;47.062;15.446;2023-04-27T01:54:07;8.10;96.60
19279;DHT22;9773;47.062;15.446;2023-04-27T01:56:33;8.10;96.70
19279;DHT22;9773;47.062;15.446;2023-04-27T01:58:59;8.10;96.60
19279;DHT22;9773;47.062;15.446;2023-04-27T02:01:24;8.10;96.70
19279;DHT22;9773;47.062;15.446;2023-04-27T02:03:50;8.10;96.70
19279;DHT22;9773;47.062;15.446;2023-04-27T02:06:16;8.10;96.80
19279;DHT22;9773;47.062;15.446;2023-04-27T02:08:42;8.00;96.80
19279;DHT22;9773;47.062;15.446;2023-04-27T02:11:08;7.90;96.90
19279;DHT22;9773;47.062;15.446;2023-04-27T02:13:34;7.80;96.90
19279;DHT22;9773;47.062;15.446;2023-04-27T02:16:00;7.80;97.00
19279;DHT22;9773;47.062;15.446;2023-04-27T02:18:27;7.80;97.00
19279;DHT22;9773;47.062;15.446;2023-04-27T02:20:53;7.80;97.00
19279;DHT22;9773;47.062;15.446;2023-04-27T02:23:19;7.80;97.20
19279;DHT22;9773;47.062;15.446;2023-04-27T02:25:45;7.70;97.30
19279;DHT22;9773;47.062;15.446;2023-04-27T02:28:12;7.80;97.30
19279;DHT22;9773;47.062;15.446;2023-04-27T02:30:38;7.70;97.20
19279;DHT22;9773;47.062;15.446;2023-04-27T02:33:04;7.80;97.40
19279;DHT22;9773;47.062;15.446;2023-04-27T02:35:30;7.80;97.20
19279;DHT22;9773;47.062;15.446;2023-04-27T02:37:57;7.70;97.20
19279;DHT22;9773;47.062;15.446;2023-04-27T02:40:23;7.70;97.20
19279;DHT22;9773;47.062;15.446;2023-04-27T02:42:49;7.70;97.40
19279;DHT22;9773;47.062;15.446;2023-04-27T02:45:15;7.70;97.60
19279;DHT22;9773;47.062;15.446;2023-04-27T02:47:43;7.70;97.80
19279;DHT22;9773;47.062;15.446;2023-04-27T02:50:08;7.70;97.70
19279;DHT22;9773;47.062;15.446;2023-04-27T02:52:34;7.70;97.60
19279;DHT22;9773;47.062;15.446;2023-04-27T02:55:00;7.70;97.60
19279;DHT22;9773;47.062;15.446;2023-04-27T02:57:26;7.70;97.90
19279;DHT22;9773;47.062;15.446;2023-04-27T02:59:52;7.70;97.70
19279;DHT22;9773;47.062;15.446;2023-04-27T03:02:18;7.70;97.70
19279;DHT22;9773;47.062;15.446;2023-04-27T03:04:44;7.60;97.80
19279;DHT22;9773;47.062;15.446;2023-04-27T03:07:09;7.70;98.00
19279;DHT22;9773;47.062;15.446;2023-04-27T03:09:36;7.60;98.10
19279;DHT22;9773;47.062;15.446;2023-04-27T03:12:03;7.50;98.30
19279;DHT22;9773;47.062;15.446;2023-04-27T03:14:29;7.50;98.30
19279;DHT22;9773;47.062;15.446;2023-04-27T03:16:55;7.40;98.30
19279;DHT22;9773;47.062;15.446;2023-04-27T03:19:22;7.40;98.50
19279;DHT22;9773;47.062;15.446;2023-04-27T03:21:47;7.30;98.50
19279;DHT22;9773;47.062;15.446;2023-04-27T03:24:13;7.30;98.40
19279;DHT22;9773;47.062;15.446;2023-04-27T03:26:39;7.30;98.40
19279;DHT22;9773;47.062;15.446;2023-04-27T03:29:05;7.40;98.40
19279;DHT22;9773;47.062;15.446;2023-04-27T03:31:32;7.40;98.20
19279;DHT22;9773;47.062;15.446;2023-04-27T03:33:58;7.50;98.10
19279;DHT22;9773;47.062;15.446;2023-04-27T03:36:24;7.40;98.30
19279;DHT22;9773;47.062;15.446;2023-04-27T03:38:51;7.40;98.00
19279;DHT22;9773;47.062;15.446;2023-04-27T03:41:16;7.30;97.80
19279;DHT22;9773;47.062;15.446;2023-04-27T03:43:42;7.30;97.90
19279;DHT22;9773;47.062;15.446;2023-04-27T03:46:08;7.30;98.20
19279;DHT22;9773;47.062;15.446;2023-04-27T03:48:34;7.40;97.90
19279;DHT22;9773;47.062;15.446;2023-04-27T03:51:00;7.40;97.90
19279;DHT22;9773;47.062;15.446;2023-04-27T03:53:26;7.40;97.80
19279;DHT22;9773;47.062;15.446;2023-04-27T03:55:52;7.40;97.60
19279;DHT22;9773;47.062;15.446;2023-04-27T03:58:17;7.40;97.60
19279;DHT22;9773;47.062;15.446;2023-04-27T04:00:43;7.40;97.70
19279;DHT22;9773;47.062;15.446;2023-04-27T04:03:09;7.50;97.60
19279;DHT22;9773;47.062;15.446;2023-04-27T04:05:36;7.50;97.40
19279;DHT22;9773;47.062;15.446;2023-04-27T04:08:02;7.60;97.70
19279;DHT22;9773;47.062;15.446;2023-04-27T04:10:27;7.60;97.70
19279;DHT22;9773;47.062;15.446;2023-04-27T04:12:53;7.50;97.50
19279;DHT22;9773;47.062;15.446;2023-04-27T04:15:19;7.60;97.60
19279;DHT22;9773;47.062;15.446;2023-04-27T04:17:45;7.50;97.60
19279;DHT22;9773;47.062;15.446;2023-04-27T04:20:12;7.50;97.80
19279;DHT22;9773;47.062;15.446;2023-04-27T04:22:41;7.60;98.00
19279;DHT22;9773;47.062;15.446;2023-04-27T04:25:08;7.60;97.60
19279;DHT22;9773;47.062;15.446;2023-04-27T04:27:34;7.60;97.50
19279;DHT22;9773;47.062;15.446;2023-04-27T04:30:00;7.60;97.70
19279;DHT22;9773;47.062;15.446;2023-04-27T04:32:29;7.60;97.70
19279;DHT22;9773;47.062;15.446;2023-04-27T04:34:56;7.60;97.80
19279;DHT22;9773;47.062;15.446;2023-04-27T04:37:22;7.60;97.70
19279;DHT22;9773;47.062;15.446;2023-04-27T04:39:48;7.70;97.60
19279;DHT22;9773;47.062;15.446;2023-04-27T04:42:14;7.70;97.50
19279;DHT22;9773;47.062;15.446;2023-04-27T04:44:40;7.70;97.40
19279;DHT22;9773;47.062;15.446;2023-04-27T04:47:07;7.70;97.40
19279;DHT22;9773;47.062;15.446;2023-04-27T04:49:34;7.60;97.40
19279;DHT22;9773;47.062;15.446;2023-04-27T04:52:00;7.70;97.50
19279;DHT22;9773;47.062;15.446;2023-04-27T04:54:26;7.70;97.40
19279;DHT22;9773;47.062;15.446;2023-04-27T04:56:52;7.80;97.40
19279;DHT22;9773;47.062;15.446;2023-04-27T04:59:17;7.90;97.30
19279;DHT22;9773;47.062;15.446;2023-04-27T05:01:43;8.00;97.10
19279;DHT22;9773;47.062;15.446;2023-04-27T05:04:09;7.90;97.00
19279;DHT22;9773;47.062;15.446;2023-04-27T05:06:35;7.90;97.00
19279;DHT22;9773;47.062;15.446;2023-04-27T05:09:01;8.00;96.90
19279;DHT22;9773;47.062;15.446;2023-04-27T05:11:26;8.10;96.80
19279;DHT22;9773;47.062;15.446;2023-04-27T05:13:52;8.10;96.70
19279;DHT22;9773;47.062;15.446;2023-04-27T05:16:18;8.20;96.60
19279;DHT22;9773;47.062;15.446;2023-04-27T05:18:43;8.30;96.50
19279;DHT22;9773;47.062;15.446;2023-04-27T05:21:13;8.30;96.50
19279;DHT22;9773;47.062;15.446;2023-04-27T05:23:39;8.40;96.50
19279;DHT22;9773;47.062;15.446;2023-04-27T05:26:15;8.40;96.20
19279;DHT22;9773;47.062;15.446;2023-04-27T05:28:42;8.50;96.20
19279;DHT22;9773;47.062;15.446;2023-04-27T05:31:07;8.70;96.00
19279;DHT22;9773;47.062;15.446;2023-04-27T05:33:33;8.70;96.00
19279;DHT22;9773;47.062;15.446;2023-04-27T05:35:59;8.70;96.00
19279;DHT22;9773;47.062;15.446;2023-04-27T05:38:25;8.60;95.90
19279;DHT22;9773;47.062;15.446;2023-04-27T05:40:54;8.70;95.90
19279;DHT22;9773;47.062;15.446;2023-04-27T05:43:21;8.80;96.00
19279;DHT22;9773;47.062;15.446;2023-04-27T05:45:47;8.90;95.60
19279;DHT22;9773;47.062;15.446;2023-04-27T05:48:12;8.90;95.40
19279;DHT22;9773;47.062;15.446;2023-04-27T05:50:38;8.90;95.40
19279;DHT22;9773;47.062;15.446;2023-04-27T05:53:04;9.00;95.20
19279;DHT22;9773;47.062;15.446;2023-04-27T05:55:30;9.00;95.30
19279;DHT22;9773;47.062;15.446;2023-04-27T05:57:56;9.10;95.30
19279;DHT22;9773;47.062;15.446;2023-04-27T06:00:22;9.20;94.90
19279;DHT22;9773;47.062;15.446;2023-04-27T06:02:47;9.30;94.80
19279;DHT22;9773;47.062;15.446;2023-04-27T06:05:13;9.30;94.30
19279;DHT22;9773;47.062;15.446;2023-04-27T06:07:39;9.30;94.30
19279;DHT22;9773;47.062;15.446;2023-04-27T06:10:08;9.50;94.40
19279;DHT22;9773;47.062;15.446;2023-04-27T06:12:34;9.60;93.80
19279;DHT22;9773;47.062;15.446;2023-04-27T06:15:00;9.70;94.40
19279;DHT22;9773;47.062;15.446;2023-04-27T06:17:33;9.80;93.40
19279;DHT22;9773;47.062;15.446;2023-04-27T06:19:59;9.80;92.60
19279;DHT22;9773;47.062;15.446;2023-04-27T06:22:24;9.80;92.20
19279;DHT22;9773;47.062;15.446;2023-04-27T06:24:50;9.70;92.30
19279;DHT22;9773;47.062;15.446;2023-04-27T06:27:16;9.90;92.90
19279;DHT22;9773;47.062;15.446;2023-04-27T06:29:42;9.90;92.50
19279;DHT22;9773;47.062;15.446;2023-04-27T06:32:07;10.10;92.20
19279;DHT22;9773;47.062;15.446;2023-04-27T06:34:33;10.40;92.30
19279;DHT22;9773;47.062;15.446;2023-04-27T06:36:59;10.50;91.90
19279;DHT22;9773;47.062;15.446;2023-04-27T06:39:26;10.70;91.30
19279;DHT22;9773;47.062;15.446;2023-04-27T06:41:52;10.80;91.30
19279;DHT22;9773;47.062;15.446;2023-04-27T06:44:19;11.00;90.80
19279;DHT22;9773;47.062;15.446;2023-04-27T06:46:45;10.80;90.10
19279;DHT22;9773;47.062;15.446;2023-04-27T06:49:11;10.80;90.40
19279;DHT22;9773;47.062;15.446;2023-04-27T06:51:36;10.90;90.30
19279;DHT22;9773;47.062;15.446;2023-04-27T06:54:02;10.90;90.20
19279;DHT22;9773;47.062;15.446;2023-04-27T06:56:28;11.00;90.50
19279;DHT22;9773;47.062;15.446;2023-04-27T06:58:54;11.00;91.10
19279;DHT22;9773;47.062;15.446;2023-04-27T07:01:20;11.10;90.80
19279;DHT22;9773;47.062;15.446;2023-04-27T07:03:46;11.20;91.10
19279;DHT22;9773;47.062;15.446;2023-04-27T07:06:11;11.20;88.00
19279;DHT22;9773;47.062;15.446;2023-04-27T07:08:37;11.20;90.00
19279;DHT22;9773;47.062;15.446;2023-04-27T07:11:03;11.30;88.00
19279;DHT22;9773;47.062;15.446;2023-04-27T07:13:29;11.40;90.20
19279;DHT22;9773;47.062;15.446;2023-04-27T07:15:55;11.40;90.20
19279;DHT22;9773;47.062;15.446;2023-04-27T07:18:24;11.40;86.20
19279;DHT22;9773;47.062;15.446;2023-04-27T07:20:53;11.50;86.40
19279;DHT22;9773;47.062;15.446;2023-04-27T07:23:19;11.50;87.90
19279;DHT22;9773;47.062;15.446;2023-04-27T07:25:45;11.50;89.00
19279;DHT22;9773;47.062;15.446;2023-04-27T07:28:11;11.50;89.40
19279;DHT22;9773;47.062;15.446;2023-04-27T07:30:37;11.40;85.00
19279;DHT22;9773;47.062;15.446;2023-04-27T07:33:04;11.20;85.90
19279;DHT22;9773;47.062;15.446;2023-04-27T07:35:29;11.30;86.30
19279;DHT22;9773;47.062;15.446;2023-04-27T07:37:56;11.30;85.50
19279;DHT22;9773;47.062;15.446;2023-04-27T07:40:22;11.20;85.80
19279;DHT22;9773;47.062;15.446;2023-04-27T07:42:48;11.30;85.70
19279;DHT22;9773;47.062;15.446;2023-04-27T07:45:14;11.20;82.80
19279;DHT22;9773;47.062;15.446;2023-04-27T07:47:42;11.10;83.20
19279;DHT22;9773;47.062;15.446;2023-04-27T07:50:10;11.20;84.40
19279;DHT22;9773;47.062;15.446;2023-04-27T07:52:36;11.40;84.10
19279;DHT22;9773;47.062;15.446;2023-04-27T07:55:02;11.40;82.60
19279;DHT22;9773;47.062;15.446;2023-04-27T07:57:28;11.20;82.10
19279;DHT22;9773;47.062;15.446;2023-04-27T07:59:56;11.30;82.80
19279;DHT22;9773;47.062;15.446;2023-04-27T08:02:22;11.40;85.00
19279;DHT22;9773;47.062;15.446;2023-04-27T08:04:48;11.60;84.70
19279;DHT22;9773;47.062;15.446;2023-04-27T08:07:15;11.60;83.40
19279;DHT22;9773;47.062;15.446;2023-04-27T08:09:41;11.60;83.70
19279;DHT22;9773;47.062;15.446;2023-04-27T08:12:07;11.60;83.70
19279;DHT22;9773;47.062;15.446;2023-04-27T08:14:34;11.70;83.80
19279;DHT22;9773;47.062;15.446;2023-04-27T08:17:00;11.80;85.00
19279;DHT22;9773;47.062;15.446;2023-04-27T08:19:25;11.90;84.70
19279;DHT22;9773;47.062;15.446;2023-04-27T08:21:51;12.00;85.20
19279;DHT22;9773;47.062;15.446;2023-04-27T08:24:17;12.00;85.40
19279;DHT22;9773;47.062;15.446;2023-04-27T08:26:43;12.00;84.10
19279;DHT22;9773;47.062;15.446;2023-04-27T08:29:09;12.00;84.30
19279;DHT22;9773;47.062;15.446;2023-04-27T08:31:35;12.20;84.00
19279;DHT22;9773;47.062;15.446;2023-04-27T08:34:00;12.20;83.50
19279;DHT22;9773;47.062;15.446;2023-04-27T08:36:26;12.10;83.90
19279;DHT22;9773;47.062;15.446;2023-04-27T08:38:53;12.10;83.50
19279;DHT22;9773;47.062;15.446;2023-04-27T08:41:21;12.20;83.30
19279;DHT22;9773;47.062;15.446;2023-04-27T08:43:50;12.10;83.30
19279;DHT22;9773;47.062;15.446;2023-04-27T08:46:22;12.10;82.60
19279;DHT22;9773;47.062;15.446;2023-04-27T08:48:54;12.10;83.80
19279;DHT22;9773;47.062;15.446;2023-04-27T08:51:21;12.20;83.40
19279;DHT22;9773;47.062;15.446;2023-04-27T08:53:50;12.30;84.70
19279;DHT22;9773;47.062;15.446;2023-04-27T08:56:17;12.50;83.50
19279;DHT22;9773;47.062;15.446;2023-04-27T08:58:43;12.40;83.90
19279;DHT22;9773;47.062;15.446;2023-04-27T09:01:09;12.50;84.30
19279;DHT22;9773;47.062;15.446;2023-04-27T09:03:35;12.60;84.40
19279;DHT22;9773;47.062;15.446;2023-04-27T09:06:04;12.50;87.30
19279;DHT22;9773;47.062;15.446;2023-04-27T09:08:49;12.50;84.40
19279;DHT22;9773;47.062;15.446;2023-04-27T09:11:28;12.50;85.30
19279;DHT22;9773;47.062;15.446;2023-04-27T09:13:54;12.60;83.80
19279;DHT22;9773;47.062;15.446;2023-04-27T09:16:24;12.60;84.30
19279;DHT22;9773;47.062;15.446;2023-04-27T09:18:51;12.70;86.90
19279;DHT22;9773;47.062;15.446;2023-04-27T09:21:29;12.80;86.00
19279;DHT22;9773;47.062;15.446;2023-04-27T09:23:55;12.80;87.20
19279;DHT22;9773;47.062;15.446;2023-04-27T09:26:26;13.40;87.10
19279;DHT22;9773;47.062;15.446;2023-04-27T09:28:54;13.00;87.30
19279;DHT22;9773;47.062;15.446;2023-04-27T09:31:36;13.20;86.60
19279;DHT22;9773;47.062;15.446;2023-04-27T09:34:02;13.30;87.90
19279;DHT22;9773;47.062;15.446;2023-04-27T09:36:29;13.40;86.40
19279;DHT22;9773;47.062;15.446;2023-04-27T09:38:57;13.40;85.50
19279;DHT22;9773;47.062;15.446;2023-04-27T09:41:24;13.50;85.90
19279;DHT22;9773;47.062;15.446;2023-04-27T09:43:50;13.50;86.70
19279;DHT22;9773;47.062;15.446;2023-04-27T09:46:17;13.50;86.00
19279;DHT22;9773;47.062;15.446;2023-04-27T09:48:44;13.50;85.70
19279;DHT22;9773;47.062;15.446;2023-04-27T09:51:09;13.40;85.30
19279;DHT22;9773;47.062;15.446;2023-04-27T09:53:45;13.30;84.60
19279;DHT22;9773;47.062;15.446;2023-04-27T09:57:13;13.10;85.40
19279;DHT22;9773;47.062;15.446;2023-04-27T10:02:10;13.40;85.60
19279;DHT22;9773;47.062;15.446;2023-04-27T10:07:10;13.60;86.90
19279;DHT22;9773;47.062;15.446;2023-04-27T10:09:47;13.70;87.00
19279;DHT22;9773;47.062;15.446;2023-04-27T10:12:21;13.90;86.90
19279;DHT22;9773;47.062;15.446;2023-04-27T10:17:15;14.20;84.20
19279;DHT22;9773;47.062;15.446;2023-04-27T10:19:54;14.40;85.20
19279;DHT22;9773;47.062;15.446;2023-04-27T10:22:20;15.30;86.10
19279;DHT22;9773;47.062;15.446;2023-04-27T10:24:49;14.70;85.40
19279;DHT22;9773;47.062;15.446;2023-04-27T10:27:17;14.70;85.10
19279;DHT22;9773;47.062;15.446;2023-04-27T10:29:46;14.80;84.70
19279;DHT22;9773;47.062;15.446;2023-04-27T10:32:19;14.80;84.70
19279;DHT22;9773;47.062;15.446;2023-04-27T10:34:46;14.80;84.70
19279;DHT22;9773;47.062;15.446;2023-04-27T10:37:14;14.80;83.80
19279;DHT22;9773;47.062;15.446;2023-04-27T10:39:42;14.70;83.50
19279;DHT22;9773;47.062;15.446;2023-04-27T10:42:09;14.70;84.50
19279;DHT22;9773;47.062;15.446;2023-04-27T10:44:36;15.00;85.20
19279;DHT22;9773;47.062;15.446;2023-04-27T10:47:14;15.10;85.10
19279;DHT22;9773;47.062;15.446;2023-04-27T10:49:41;15.30;85.10
19279;DHT22;9773;47.062;15.446;2023-04-27T10:52:07;15.40;84.10
19279;DHT22;9773;47.062;15.446;2023-04-27T10:54:33;15.40;82.10
19279;DHT22;9773;47.062;15.446;2023-04-27T10:57:07;15.50;82.00
19279;DHT22;9773;47.062;15.446;2023-04-27T10:59:35;15.50;85.10
19279;DHT22;9773;47.062;15.446;2023-04-27T11:02:11;15.50;85.70
19279;DHT22;9773;47.062;15.446;2023-04-27T11:04:38;15.60;83.30
19279;DHT22;9773;47.062;15.446;2023-04-27T11:07:05;15.70;84.20
19279;DHT22;9773;47.062;15.446;2023-04-27T11:09:34;16.00;83.50
19279;DHT22;9773;47.062;15.446;2023-04-27T11:12:01;16.40;83.20
19279;DHT22;9773;47.062;15.446;2023-04-27T11:14:27;16.80;83.20
19279;DHT22;9773;47.062;15.446;2023-04-27T11:16:54;16.90;81.80
19279;DHT22;9773;47.062;15.446;2023-04-27T11:19:19;17.20;81.30
19279;DHT22;9773;47.062;15.446;2023-04-27T11:21:45;17.40;79.60
19279;DHT22;9773;47.062;15.446;2023-04-27T11:24:13;17.60;77.60
19279;DHT22;9773;47.062;15.446;2023-04-27T11:26:39;17.50;77.10
19279;DHT22;9773;47.062;15.446;2023-04-27T11:29:07;17.30;78.20
19279;DHT22;9773;47.062;15.446;2023-04-27T11:31:46;17.10;80.10
19279;DHT22;9773;47.062;15.446;2023-04-27T11:34:20;17.00;81.40
19279;DHT22;9773;47.062;15.446;2023-04-27T11:37:20;16.90;82.80
19279;DHT22;9773;47.062;15.446;2023-04-27T11:39:47;16.70;80.30
19279;DHT22;9773;47.062;15.446;2023-04-27T11:44:50;16.60;81.00
19279;DHT22;9773;47.062;15.446;2023-04-27T11:47:16;16.70;82.60
19279;DHT22;9773;47.062;15.446;2023-04-27T11:49:49;16.70;83.50
19279;DHT22;9773;47.062;15.446;2023-04-27T11:52:15;16.70;83.70
19279;DHT22;9773;47.062;15.446;2023-04-27T11:54:49;16.70;83.30
19279;DHT22;9773;47.062;15.446;2023-04-27T11:57:15;16.80;82.50
19279;DHT22;9773;47.062;15.446;2023-04-27T11:59:41;16.70;81.80
19279;DHT22;9773;47.062;15.446;2023-04-27T12:02:07;16.70;82.70
19279;DHT22;9773;47.062;15.446;2023-04-27T12:04:34;16.70;82.50
19279;DHT22;9773;47.062;15.446;2023-04-27T12:07:01;16.60;82.30
19279;DHT22;9773;47.062;15.446;2023-04-27T12:09:26;16.60;81.60
19279;DHT22;9773;47.062;15.446;2023-04-27T12:11:53;16.30;82.20
19279;DHT22;9773;47.062;15.446;2023-04-27T12:14:21;16.20;82.40
19279;DHT22;9773;47.062;15.446;2023-04-27T12:16:47;16.10;81.90
19279;DHT22;9773;47.062;15.446;2023-04-27T12:19:13;16.10;82.00
19279;DHT22;9773;47.062;15.446;2023-04-27T12:21:38;16.10;84.10
19279;DHT22;9773;47.062;15.446;2023-04-27T12:24:04;16.20;83.80
19279;DHT22;9773;47.062;15.446;2023-04-27T12:26:30;16.40;82.10
19279;DHT22;9773;47.062;15.446;2023-04-27T12:28:56;16.60;81.70
19279;DHT22;9773;47.062;15.446;2023-04-27T12:31:22;16.80;80.80
19279;DHT22;9773;47.062;15.446;2023-04-27T12:33:49;17.10;79.50
19279;DHT22;9773;47.062;15.446;2023-04-27T12:36:16;17.30;81.40
19279;DHT22;9773;47.062;15.446;2023-04-27T12:38:42;17.40;80.70
19279;DHT22;9773;47.062;15.446;2023-04-27T12:41:08;17.70;80.10
19279;DHT22;9773;47.062;15.446;2023-04-27T12:43:34;17.90;79.50
19279;DHT22;9773;47.062;15.446;2023-04-27T12:46:02;17.90;78.80
19279;DHT22;9773;47.062;15.446;2023-04-27T12:48:28;17.70;75.90
19279;DHT22;9773;47.062;15.446;2023-04-27T12:50:54;17.70;77.80
19279;DHT22;9773;47.062;15.446;2023-04-27T12:53:21;17.80;77.70
19279;DHT22;9773;47.062;15.446;2023-04-27T12:55:46;17.80;78.50
19279;DHT22;9773;47.062;15.446;2023-04-27T12:58:12;17.80;78.10
19279;DHT22;9773;47.062;15.446;2023-04-27T13:00:38;17.90;78.40
19279;DHT22;9773;47.062;15.446;2023-04-27T13:03:05;17.90;79.10
19279;DHT22;9773;47.062;15.446;2023-04-27T13:05:31;17.80;76.50
19279;DHT22;9773;47.062;15.446;2023-04-27T13:07:56;17.70;76.30
19279;DHT22;9773;47.062;15.446;2023-04-27T13:10:22;17.80;76.90
19279;DHT22;9773;47.062;15.446;2023-04-27T13:12:48;17.90;76.60
19279;DHT22;9773;47.062;15.446;2023-04-27T13:15:14;17.90;76.30
19279;DHT22;9773;47.062;15.446;2023-04-27T13:17:39;17.70;74.70
19279;DHT22;9773;47.062;15.446;2023-04-27T13:20:06;17.40;75.60
19279;DHT22;9773;47.062;15.446;2023-04-27T13:22:33;17.60;75.60
19279;DHT22;9773;47.062;15.446;2023-04-27T13:24:59;17.70;75.00
19279;DHT22;9773;47.062;15.446;2023-04-27T13:27:25;17.90;75.40
19279;DHT22;9773;47.062;15.446;2023-04-27T13:29:53;17.90;75.40
19279;DHT22;9773;47.062;15.446;2023-04-27T13:32:18;18.00;76.20
19279;DHT22;9773;47.062;15.446;2023-04-27T13:34:44;18.00;73.90
19279;DHT22;9773;47.062;15.446;2023-04-27T13:37:10;17.60;75.00
19279;DHT22;9773;47.062;15.446;2023-04-27T13:39:36;17.30;75.40
19279;DHT22;9773;47.062;15.446;2023-04-27T13:42:02;17.20;75.50
19279;DHT22;9773;47.062;15.446;2023-04-27T13:44:28;17.00;75.80
19279;DHT22;9773;47.062;15.446;2023-04-27T13:46:53;17.10;75.90
19279;DHT22;9773;47.062;15.446;2023-04-27T13:49:19;17.00;76.00
19279;DHT22;9773;47.062;15.446;2023-04-27T13:51:45;16.90;76.60
19279;DHT22;9773;47.062;15.446;2023-04-27T13:54:11;16.80;76.80
19279;DHT22;9773;47.062;15.446;2023-04-27T13:56:36;16.90;76.70
19279;DHT22;9773;47.062;15.446;2023-04-27T13:59:02;17.00;77.10
19279;DHT22;9773;47.062;15.446;2023-04-27T14:01:28;17.00;77.70
19279;DHT22;9773;47.062;15.446;2023-04-27T14:03:54;17.10;78.20
19279;DHT22;9773;47.062;15.446;2023-04-27T14:06:20;17.20;78.40
19279;DHT22;9773;47.062;15.446;2023-04-27T14:08:46;17.20;77.70
19279;DHT22;9773;47.062;15.446;2023-04-27T14:11:12;17.00;78.30
19279;DHT22;9773;47.062;15.446;2023-04-27T14:13:38;16.80;79.00
19279;DHT22;9773;47.062;15.446;2023-04-27T14:16:06;16.80;78.10
19279;DHT22;9773;47.062;15.446;2023-04-27T14:18:32;16.80;78.30
19279;DHT22;9773;47.062;15.446;2023-04-27T14:20:58;16.90;77.60
19279;DHT22;9773;47.062;15.446;2023-04-27T14:23:23;17.00;77.30
19279;DHT22;9773;47.062;15.446;2023-04-27T14:25:49;17.30;79.20
19279;DHT22;9773;47.062;15.446;2023-04-27T14:28:15;17.40;79.50
19279;DHT22;9773;47.062;15.446;2023-04-27T14:30:40;17.50;80.80
19279;DHT22;9773;47.062;15.446;2023-04-27T14:33:06;17.60;80.50
19279;DHT22;9773;47.062;15.446;2023-04-27T14:35:35;17.70;78.90
19279;DHT22;9773;47.062;15.446;2023-04-27T14:38:01;17.80;79.00
19279;DHT22;9773;47.062;15.446;2023-04-27T14:40:31;17.80;79.60
19279;DHT22;9773;47.062;15.446;2023-04-27T14:42:57;17.90;80.90
19279;DHT22;9773;47.062;15.446;2023-04-27T14:45:24;17.90;80.70
19279;DHT22;9773;47.062;15.446;2023-04-27T14:47:50;17.80;79.70
19279;DHT22;9773;47.062;15.446;2023-04-27T14:50:16;17.60;79.80
19279;DHT22;9773;47.062;15.446;2023-04-27T14:52:41;17.50;81.10
19279;DHT22;9773;47.062;15.446;2023-04-27T14:55:07;17.50;81.40
19279;DHT22;9773;47.062;15.446;2023-04-27T14:57:34;17.60;82.60
19279;DHT22;9773;47.062;15.446;2023-04-27T15:00:00;17.50;79.90
19279;DHT22;9773;47.062;15.446;2023-04-27T15:02:30;17.50;79.50
19279;DHT22;9773;47.062;15.446;2023-04-27T15:04:56;17.30;79.30
19279;DHT22;9773;47.062;15.446;2023-04-27T15:07:21;17.50;80.00
19279;DHT22;9773;47.062;15.446;2023-04-27T15:09:47;17.60;80.30
19279;DHT22;9773;47.062;15.446;2023-04-27T15:12:13;17.80;80.30
19279;DHT22;9773;47.062;15.446;2023-04-27T15:14:39;17.90;77.90
19279;DHT22;9773;47.062;15.446;2023-04-27T15:17:05;18.00;78.50
19279;DHT22;9773;47.062;15.446;2023-04-27T15:19:33;18.10;79.90
19279;DHT22;9773;47.062;15.446;2023-04-27T15:21:59;18.20;79.00
19279;DHT22;9773;47.062;15.446;2023-04-27T15:24:24;18.20;79.40
19279;DHT22;9773;47.062;15.446;2023-04-27T15:26:50;18.20;81.50
19279;DHT22;9773;47.062;15.446;2023-04-27T15:29:16;18.10;80.90
19279;DHT22;9773;47.062;15.446;2023-04-27T15:31:42;17.90;81.30
19279;DHT22;9773;47.062;15.446;2023-04-27T15:34:07;17.80;82.60
19279;DHT22;9773;47.062;15.446;2023-04-27T15:36:33;17.70;81.90
19279;DHT22;9773;47.062;15.446;2023-04-27T15:39:00;17.70;81.30
19279;DHT22;9773;47.062;15.446;2023-04-27T15:41:25;17.40;81.40
19279;DHT22;9773;47.062;15.446;2023-04-27T15:43:51;17.30;81.80
19279;DHT22;9773;47.062;15.446;2023-04-27T15:46:17;17.30;82.50